Time;durP1;ratioP1;P1;durP2;ratioP2;P2;SDS_P1;SDS_P2;PMS_P1;PMS_P2;Temp;Humidity;BMP_temperature;BMP_pressure;BME280_temperature;BME280_humidity;BME280_pressure;Samples;Min_cycle;Max_cycle;Signal;HPM_P1;HPM_P2
2023/11/18 00:01:15;;;;;;;8.10;5.60;;;7.20;99.90;;;;;;5024380;28;20451;-75
2023/11/18 00:03:41;;;;;;;10.70;6.60;;;7.30;99.90;;;;;;5031405;28;21034;-75
2023/11/18 00:06:07;;;;;;;7.27;4.67;;;7.30;99.90;;;;;;5027910;28;20212;-74
2023/11/18 00:08:33;;;;;;;12.27;6.67;;;7.20;99.90;;;;;;5038763;28;20219;-75
2023/11/18 00:10:59;;;;;;;7.90;5.27;;;7.20;99.90;;;;;;5031398;28;20973;-75
2023/11/18 00:13:26;;;;;;;7.33;5.43;;;7.20;99.90;;;;;;5012068;28;20451;-75
2023/11/18 00:15:52;;;;;;;10.17;5.60;;;7.20;99.90;;;;;;5040679;28;20707;-75
2023/11/18 00:18:18;;;;;;;8.47;4.80;;;7.20;99.90;;;;;;5051949;28;20447;-75
2023/11/18 00:20:44;;;;;;;14.50;6.10;;;7.20;99.90;;;;;;5071217;28;20454;-74
2023/11/18 00:23:10;;;;;;;7.83;5.40;;;7.20;99.90;;;;;;5047381;28;20490;-75
2023/11/18 00:25:36;;;;;;;7.97;5.17;;;7.20;99.90;;;;;;5050167;28;20485;-75
2023/11/18 00:28:02;;;;;;;8.33;5.83;;;7.20;99.90;;;;;;5051159;28;20208;-75
2023/11/18 00:30:28;;;;;;;7.20;5.07;;;7.20;99.90;;;;;;5039309;28;20228;-75
2023/11/18 00:32:53;;;;;;;7.23;4.97;;;7.20;99.90;;;;;;5038110;28;21015;-75
2023/11/18 00:35:19;;;;;;;8.20;5.17;;;7.10;99.90;;;;;;5046679;28;20777;-74
2023/11/18 00:37:45;;;;;;;8.40;4.97;;;7.10;99.90;;;;;;5031064;28;20637;-75
2023/11/18 00:40:11;;;;;;;9.20;5.17;;;7.10;99.90;;;;;;5037514;28;20226;-76
2023/11/18 00:42:38;;;;;;;6.97;5.10;;;7.10;99.90;;;;;;5017893;28;20231;-74
2023/11/18 00:45:05;;;;;;;8.00;5.23;;;7.00;99.90;;;;;;5033103;28;20977;-76
2023/11/18 00:47:30;;;;;;;11.87;5.67;;;7.00;99.90;;;;;;5041488;28;20483;-75
2023/11/18 00:49:57;;;;;;;8.97;5.33;;;7.00;99.90;;;;;;5041562;28;20452;-75
2023/11/18 00:52:23;;;;;;;10.53;6.40;;;7.00;99.90;;;;;;5018652;28;20225;-74
2023/11/18 00:54:48;;;;;;;9.00;5.30;;;6.90;99.90;;;;;;5029925;28;20506;-75
2023/11/18 00:57:14;;;;;;;14.00;5.47;;;6.90;99.90;;;;;;5026937;28;20307;-75
2023/11/18 00:59:43;;;;;;;7.93;5.27;;;6.80;99.90;;;;;;5028016;28;20224;-76
2023/11/18 01:02:09;;;;;;;8.40;5.20;;;6.60;99.90;;;;;;5062963;28;20212;-75
2023/11/18 01:04:35;;;;;;;7.63;4.90;;;6.70;99.90;;;;;;5006085;28;20544;-75
2023/11/18 01:07:00;;;;;;;7.77;5.30;;;6.70;99.90;;;;;;5020689;28;20212;-76
2023/11/18 01:09:27;;;;;;;8.20;5.93;;;6.70;99.90;;;;;;5022138;28;20220;-75
2023/11/18 01:11:52;;;;;;;8.27;5.20;;;6.60;99.90;;;;;;5041488;28;20213;-76
2023/11/18 01:14:19;;;;;;;5.40;4.57;;;6.60;99.90;;;;;;5028150;28;20468;-76
2023/11/18 01:16:45;;;;;;;6.60;4.70;;;6.70;99.90;;;;;;5054400;28;20227;-75
2023/11/18 01:19:11;;;;;;;10.03;5.33;;;6.60;99.90;;;;;;5023768;28;20459;-75
2023/11/18 01:21:36;;;;;;;7.37;4.50;;;6.50;99.90;;;;;;5024303;28;20811;-75
2023/11/18 01:24:02;;;;;;;6.80;4.40;;;6.40;99.90;;;;;;5016662;28;20304;-76
2023/11/18 01:26:28;;;;;;;5.90;4.63;;;6.20;99.90;;;;;;5024947;28;20217;-75
2023/11/18 01:28:55;;;;;;;8.67;5.20;;;6.20;99.90;;;;;;5036954;28;20580;-76
2023/11/18 01:31:21;;;;;;;8.97;5.33;;;6.30;99.90;;;;;;5034896;28;20224;-75
2023/11/18 01:33:50;;;;;;;9.27;4.83;;;6.40;99.90;;;;;;5042062;28;20447;-76
2023/11/18 01:36:17;;;;;;;8.17;5.30;;;6.50;99.90;;;;;;5036887;28;20453;-76
2023/11/18 01:38:43;;;;;;;6.27;4.33;;;6.60;99.90;;;;;;5033983;28;20886;-74
2023/11/18 01:41:09;;;;;;;9.97;4.83;;;6.60;99.90;;;;;;5036022;28;20470;-75
2023/11/18 01:43:34;;;;;;;7.37;4.97;;;6.60;99.90;;;;;;5021503;28;20275;-75
2023/11/18 01:46:03;;;;;;;6.53;4.57;;;6.60;99.90;;;;;;5041266;28;20215;-76
2023/11/18 01:48:33;;;;;;;7.80;4.90;;;6.60;99.90;;;;;;5021129;28;20240;-75
2023/11/18 01:50:59;;;;;;;6.07;4.33;;;6.60;99.90;;;;;;5046536;28;20454;-76
2023/11/18 01:53:26;;;;;;;11.30;5.23;;;6.60;99.90;;;;;;5047270;28;20613;-74
2023/11/18 01:55:52;;;;;;;8.87;5.23;;;6.60;99.90;;;;;;5045712;28;20503;-76
2023/11/18 01:58:19;;;;;;;7.33;4.57;;;6.50;99.90;;;;;;5014296;28;20475;-75
2023/11/18 02:00:46;;;;;;;6.43;4.70;;;6.60;99.90;;;;;;5038790;28;20228;-76
2023/11/18 02:03:12;;;;;;;9.60;5.17;;;6.50;99.90;;;;;;5038545;28;20472;-75
2023/11/18 02:05:38;;;;;;;6.17;4.40;;;6.50;99.90;;;;;;5026771;28;20443;-74
2023/11/18 02:08:06;;;;;;;6.83;4.87;;;6.50;99.90;;;;;;5021750;28;20459;-76
2023/11/18 02:10:34;;;;;;;9.80;5.47;;;6.50;99.90;;;;;;5034471;28;20215;-76
2023/11/18 02:13:12;;;;;;;9.63;5.50;;;6.40;99.90;;;;;;5045836;28;20552;-75
2023/11/18 02:15:39;;;;;;;9.60;5.00;;;6.40;99.90;;;;;;5056130;28;20460;-75
2023/11/18 02:18:09;;;;;;;6.67;4.10;;;6.40;99.90;;;;;;5015057;28;21032;-75
2023/11/18 02:20:35;;;;;;;7.37;4.70;;;6.40;99.90;;;;;;5043747;28;20442;-76
2023/11/18 02:23:02;;;;;;;5.80;4.20;;;6.30;99.90;;;;;;5016001;28;20459;-76
2023/11/18 02:25:32;;;;;;;6.60;4.30;;;6.30;99.90;;;;;;5031023;28;20843;-75
2023/11/18 02:27:58;;;;;;;8.77;4.40;;;6.30;99.90;;;;;;5053496;28;20458;-75
2023/11/18 02:30:24;;;;;;;8.07;5.00;;;6.20;99.90;;;;;;5031708;28;20450;-75
2023/11/18 02:33:05;;;;;;;7.53;4.70;;;6.30;99.90;;;;;;5033043;28;20447;-75
2023/11/18 02:35:38;;;;;;;8.93;4.70;;;6.20;99.90;;;;;;5014725;28;20483;-75
2023/11/18 02:38:10;;;;;;;5.73;4.40;;;6.20;99.90;;;;;;5036024;28;20443;-75
2023/11/18 02:40:43;;;;;;;6.67;4.43;;;6.20;99.90;;;;;;5049700;28;20871;-75
2023/11/18 02:43:10;;;;;;;5.30;3.57;;;6.20;99.90;;;;;;5062154;28;20470;-76
2023/11/18 02:45:37;;;;;;;6.27;4.33;;;6.20;99.90;;;;;;5043219;28;20458;-75
2023/11/18 02:48:06;;;;;;;7.33;4.40;;;6.10;99.90;;;;;;5045755;28;20446;-75
2023/11/18 02:50:32;;;;;;;5.60;3.10;;;6.10;99.90;;;;;;5040035;28;20459;-74
2023/11/18 02:52:58;;;;;;;6.23;5.07;;;6.20;99.90;;;;;;5044186;28;20541;-76
2023/11/18 02:55:24;;;;;;;6.10;4.70;;;6.10;99.90;;;;;;5068561;28;20580;-75
2023/11/18 02:57:51;;;;;;;9.43;5.53;;;6.10;99.90;;;;;;5065341;28;20216;-75
2023/11/18 03:00:28;;;;;;;8.37;5.27;;;6.10;99.90;;;;;;5047978;28;20490;-75
2023/11/18 03:02:54;;;;;;;7.70;4.03;;;6.10;99.90;;;;;;5066853;28;20469;-75
2023/11/18 03:05:21;;;;;;;9.17;4.47;;;6.10;99.90;;;;;;5033208;28;20446;-75
2023/11/18 03:07:50;;;;;;;6.30;4.53;;;6.10;99.90;;;;;;5054679;28;20488;-76
2023/11/18 03:10:21;;;;;;;7.93;4.97;;;6.10;99.90;;;;;;5045558;28;20462;-75
2023/11/18 03:12:52;;;;;;;9.50;5.27;;;6.10;99.90;;;;;;5038007;28;20463;-75
2023/11/18 03:15:19;;;;;;;8.27;4.40;;;6.10;99.90;;;;;;5034815;28;20544;-75
2023/11/18 03:17:49;;;;;;;6.40;4.50;;;6.00;99.90;;;;;;5035212;28;20474;-75
2023/11/18 03:20:19;;;;;;;8.87;4.93;;;6.00;99.90;;;;;;5051916;28;20994;-75
2023/11/18 03:22:46;;;;;;;10.00;5.03;;;6.00;99.90;;;;;;5053111;28;20481;-75
2023/11/18 03:25:13;;;;;;;6.93;3.90;;;5.90;99.90;;;;;;5051898;28;20451;-75
2023/11/18 03:27:39;;;;;;;6.37;4.90;;;5.90;99.90;;;;;;5050077;28;20527;-75
2023/11/18 03:30:07;;;;;;;7.40;4.90;;;5.90;99.90;;;;;;5048900;28;20482;-75
2023/11/18 03:32:37;;;;;;;9.27;4.87;;;5.90;99.90;;;;;;5050163;28;20455;-75
2023/11/18 03:35:09;;;;;;;6.50;4.63;;;5.80;99.90;;;;;;5059914;28;20454;-75
2023/11/18 03:37:38;;;;;;;8.13;4.80;;;5.70;99.90;;;;;;5044204;28;20795;-75
2023/11/18 03:40:09;;;;;;;5.30;4.00;;;5.70;99.90;;;;;;5045070;28;20454;-75
2023/11/18 03:42:35;;;;;;;7.27;4.90;;;5.70;99.90;;;;;;5050802;28;20571;-74
2023/11/18 03:45:01;;;;;;;7.57;5.00;;;5.80;99.90;;;;;;5045038;28;21063;-75
2023/11/18 03:47:27;;;;;;;5.77;4.43;;;5.80;99.90;;;;;;5067177;28;20490;-75
2023/11/18 03:49:55;;;;;;;7.47;4.57;;;5.80;99.90;;;;;;5045405;28;20486;-75
2023/11/18 03:52:21;;;;;;;5.40;4.20;;;5.80;99.90;;;;;;5033118;28;20756;-75
2023/11/18 03:54:47;;;;;;;6.97;4.73;;;5.80;99.90;;;;;;5018572;28;20500;-75
2023/11/18 03:57:12;;;;;;;6.70;4.30;;;5.80;99.90;;;;;;5050172;28;20216;-75
2023/11/18 03:59:39;;;;;;;6.63;4.50;;;5.80;99.90;;;;;;5034238;28;20216;-75
2023/11/18 04:02:06;;;;;;;6.07;3.57;;;5.80;99.90;;;;;;5040197;28;20232;-75
2023/11/18 04:04:31;;;;;;;9.60;4.67;;;5.80;99.90;;;;;;5020561;28;20505;-76
2023/11/18 04:06:57;;;;;;;6.53;4.17;;;5.80;99.90;;;;;;5046488;28;20442;-75
2023/11/18 04:09:23;;;;;;;7.80;4.50;;;5.80;99.90;;;;;;5056203;28;20207;-75
2023/11/18 04:11:49;;;;;;;7.17;3.87;;;5.80;99.90;;;;;;5031478;28;20750;-75
2023/11/18 04:14:14;;;;;;;5.87;4.30;;;5.80;99.90;;;;;;5020116;28;20314;-75
2023/11/18 04:16:41;;;;;;;6.43;4.10;;;5.80;99.90;;;;;;5008221;28;20243;-73
2023/11/18 04:19:06;;;;;;;5.87;3.97;;;5.80;99.90;;;;;;5031174;28;20447;-75
2023/11/18 04:21:32;;;;;;;7.93;5.03;;;5.80;99.90;;;;;;5015157;28;20645;-75
2023/11/18 04:23:57;;;;;;;7.00;4.40;;;5.80;99.90;;;;;;5038159;28;20232;-76
2023/11/18 04:26:24;;;;;;;7.87;5.50;;;5.80;99.90;;;;;;5048691;28;20323;-75
2023/11/18 04:28:50;;;;;;;6.87;4.80;;;5.80;99.90;;;;;;5032005;28;20232;-75
2023/11/18 04:31:16;;;;;;;7.77;4.13;;;5.80;99.90;;;;;;5047337;28;20492;-75
2023/11/18 04:33:41;;;;;;;6.97;5.20;;;5.80;99.90;;;;;;5029409;28;20670;-75
2023/11/18 04:36:09;;;;;;;8.00;5.10;;;5.80;99.90;;;;;;5040102;28;20296;-76
2023/11/18 04:38:35;;;;;;;9.43;5.20;;;5.70;99.90;;;;;;5004827;28;20320;-75
2023/11/18 04:41:03;;;;;;;5.87;4.70;;;5.80;99.90;;;;;;5026633;28;20945;-75
2023/11/18 04:43:29;;;;;;;7.37;4.70;;;5.80;99.90;;;;;;5010888;28;20463;-75
2023/11/18 04:45:56;;;;;;;9.43;5.60;;;5.80;99.90;;;;;;5026855;28;20450;-75
2023/11/18 04:48:22;;;;;;;6.27;4.53;;;5.80;99.90;;;;;;5034526;28;20221;-75
2023/11/18 04:50:47;;;;;;;7.40;4.83;;;5.80;99.90;;;;;;5042332;28;20511;-74
2023/11/18 04:53:13;;;;;;;11.73;4.70;;;5.70;99.90;;;;;;5034014;28;20677;-75
2023/11/18 04:55:39;;;;;;;5.67;4.70;;;5.70;99.90;;;;;;5032971;28;20213;-74
2023/11/18 04:58:05;;;;;;;9.37;5.57;;;5.70;99.90;;;;;;5040003;28;20221;-75
2023/11/18 05:00:35;;;;;;;6.87;4.37;;;5.80;99.90;;;;;;5065336;28;20482;-74
2023/11/18 05:03:01;;;;;;;8.03;5.00;;;5.80;99.90;;;;;;5032923;28;20979;-76
2023/11/18 05:05:27;;;;;;;7.47;4.70;;;5.80;99.90;;;;;;5033290;28;20470;-76
2023/11/18 05:07:52;;;;;;;7.53;4.80;;;5.80;99.90;;;;;;5046088;28;20356;-75
2023/11/18 05:10:18;;;;;;;7.60;4.47;;;5.80;99.90;;;;;;5045333;28;20299;-75
2023/11/18 05:12:44;;;;;;;7.40;4.40;;;5.80;99.90;;;;;;5029774;28;20247;-76
2023/11/18 05:15:10;;;;;;;7.03;4.17;;;5.80;99.90;;;;;;5060665;28;20501;-75
2023/11/18 05:17:37;;;;;;;8.83;4.33;;;5.80;99.90;;;;;;5058912;28;20315;-76
2023/11/18 05:20:04;;;;;;;7.73;4.60;;;5.80;99.90;;;;;;5035190;28;20223;-75
2023/11/18 05:22:29;;;;;;;8.00;4.87;;;5.80;99.90;;;;;;5064346;28;20482;-75
2023/11/18 05:24:55;;;;;;;9.10;4.80;;;5.80;99.90;;;;;;5025578;28;20521;-76
2023/11/18 05:27:20;;;;;;;6.07;4.20;;;5.80;99.90;;;;;;5026949;28;20269;-75
2023/11/18 05:29:53;;;;;;;10.10;5.30;;;5.80;99.90;;;;;;5016306;28;20225;-75
2023/11/18 05:32:20;;;;;;;9.47;4.93;;;5.80;99.90;;;;;;5022999;28;20227;-75
2023/11/18 05:34:46;;;;;;;11.20;5.47;;;5.80;99.90;;;;;;5020968;28;20467;-75
2023/11/18 05:37:12;;;;;;;7.93;5.33;;;5.80;99.90;;;;;;5033891;28;20451;-75
2023/11/18 05:39:42;;;;;;;8.07;5.10;;;5.90;99.90;;;;;;5015740;28;20217;-75
2023/11/18 05:42:10;;;;;;;6.70;4.60;;;5.90;99.90;;;;;;5045100;28;20588;-75
2023/11/18 05:44:39;;;;;;;9.70;4.60;;;5.90;99.90;;;;;;5010252;28;20463;-75
2023/11/18 05:47:06;;;;;;;3.87;3.50;;;5.90;99.90;;;;;;5037888;28;20452;-76
2023/11/18 05:49:33;;;;;;;9.87;4.90;;;5.90;99.90;;;;;;5030263;28;20452;-74
2023/11/18 05:51:59;;;;;;;7.13;5.37;;;5.90;99.90;;;;;;5042966;28;20447;-75
2023/11/18 05:54:25;;;;;;;8.47;5.00;;;5.90;99.90;;;;;;5019222;28;20504;-76
2023/11/18 05:56:51;;;;;;;9.53;5.40;;;5.90;99.90;;;;;;5025510;28;20240;-75
2023/11/18 05:59:17;;;;;;;6.80;4.50;;;5.90;99.90;;;;;;5029845;28;20480;-75
2023/11/18 06:01:43;;;;;;;9.33;5.87;;;5.90;99.90;;;;;;5009118;28;20295;-75
2023/11/18 06:04:08;;;;;;;10.23;6.17;;;5.90;99.90;;;;;;5023148;28;20562;-75
2023/11/18 06:06:34;;;;;;;9.93;5.80;;;5.90;99.90;;;;;;5043991;28;20213;-76
2023/11/18 06:09:04;;;;;;;8.53;5.20;;;5.90;99.90;;;;;;5046441;28;20209;-76
2023/11/18 06:11:34;;;;;;;7.53;4.63;;;5.90;99.90;;;;;;5040052;28;20220;-75
2023/11/18 06:14:00;;;;;;;10.83;6.33;;;5.90;99.90;;;;;;5051496;28;20455;-75
2023/11/18 06:16:26;;;;;;;11.37;5.50;;;5.90;99.90;;;;;;5023527;28;20451;-76
2023/11/18 06:18:54;;;;;;;9.20;5.47;;;5.90;99.90;;;;;;5045857;28;20455;-76
2023/11/18 06:21:24;;;;;;;7.03;4.83;;;5.90;99.90;;;;;;5056732;28;20232;-75
2023/11/18 06:23:51;;;;;;;11.03;5.67;;;5.90;99.90;;;;;;5029939;28;20479;-75
2023/11/18 06:26:19;;;;;;;11.07;6.17;;;5.90;99.90;;;;;;5043385;28;20459;-76
2023/11/18 06:28:46;;;;;;;11.03;6.40;;;5.90;99.90;;;;;;5044021;28;20551;-76
2023/11/18 06:31:13;;;;;;;10.30;5.47;;;5.90;99.90;;;;;;5031713;28;20489;-75
2023/11/18 06:33:43;;;;;;;10.70;5.70;;;5.90;99.90;;;;;;5056763;28;20464;-74
2023/11/18 06:36:10;;;;;;;8.37;5.77;;;5.90;99.90;;;;;;5043478;28;20547;-75
2023/11/18 06:38:37;;;;;;;8.67;4.80;;;6.00;99.90;;;;;;5032669;28;20473;-75
2023/11/18 06:41:05;;;;;;;11.30;6.33;;;6.00;99.90;;;;;;5058241;28;20469;-76
2023/11/18 06:43:49;;;;;;;11.10;6.77;;;6.00;99.90;;;;;;5036022;28;20553;-75
2023/11/18 06:46:15;;;;;;;8.70;6.00;;;6.00;99.90;;;;;;5070784;28;20485;-76
2023/11/18 06:48:40;;;;;;;11.50;7.17;;;6.00;99.90;;;;;;5033170;28;20492;-75
2023/11/18 06:51:08;;;;;;;11.57;7.07;;;6.00;99.90;;;;;;5039788;28;20269;-75
2023/11/18 06:53:34;;;;;;;11.07;7.60;;;6.00;99.90;;;;;;5045533;28;20235;-75
2023/11/18 06:56:00;;;;;;;19.17;8.80;;;6.00;99.90;;;;;;5053323;28;21024;-75
2023/11/18 06:58:26;;;;;;;13.77;8.70;;;6.00;99.90;;;;;;5053927;28;20445;-75
2023/11/18 07:00:52;;;;;;;19.77;8.90;;;6.00;99.90;;;;;;5065794;28;20215;-75
2023/11/18 07:03:18;;;;;;;14.47;8.40;;;6.10;99.90;;;;;;5052217;28;20465;-75
2023/11/18 07:05:44;;;;;;;13.80;9.10;;;6.00;99.90;;;;;;5062705;28;20527;-75
2023/11/18 07:08:10;;;;;;;11.90;7.00;;;6.10;99.90;;;;;;5040672;28;20208;-76
2023/11/18 07:10:38;;;;;;;13.10;8.03;;;6.00;99.90;;;;;;5065191;28;20246;-75
2023/11/18 07:13:03;;;;;;;15.97;8.10;;;6.00;99.90;;;;;;5037204;28;20265;-76
2023/11/18 07:15:29;;;;;;;12.67;7.70;;;6.10;99.90;;;;;;5052793;28;20904;-75
2023/11/18 07:17:55;;;;;;;11.00;6.63;;;6.10;99.90;;;;;;5051672;28;20236;-76
2023/11/18 07:20:21;;;;;;;10.47;6.33;;;6.10;99.90;;;;;;5064355;28;20238;-76
2023/11/18 07:22:47;;;;;;;9.43;5.80;;;6.10;99.90;;;;;;5040482;28;20225;-75
2023/11/18 07:25:12;;;;;;;12.80;8.17;;;6.10;99.90;;;;;;5046631;28;20879;-75
2023/11/18 07:27:38;;;;;;;13.57;7.70;;;6.10;99.90;;;;;;5052521;28;20226;-76
2023/11/18 07:30:06;;;;;;;17.77;8.57;;;6.10;99.90;;;;;;5069792;28;20224;-75
2023/11/18 07:32:33;;;;;;;11.80;7.47;;;6.10;99.90;;;;;;5073117;28;20459;-76
2023/11/18 07:34:59;;;;;;;10.80;7.47;;;6.10;99.90;;;;;;5025251;28;20460;-75
2023/11/18 07:37:26;;;;;;;10.97;7.13;;;6.10;99.90;;;;;;5052294;28;20836;-76
2023/11/18 07:39:52;;;;;;;25.57;12.77;;;6.10;99.90;;;;;;5062799;28;20299;-75
2023/11/18 07:42:18;;;;;;;25.83;14.03;;;6.10;99.90;;;;;;5028683;28;20566;-75
2023/11/18 07:44:44;;;;;;;20.90;11.50;;;6.10;99.90;;;;;;5034463;28;20219;-75
2023/11/18 07:47:11;;;;;;;15.03;10.30;;;6.10;99.90;;;;;;5069233;28;20307;-75
2023/11/18 07:49:37;;;;;;;16.40;9.80;;;6.10;99.90;;;;;;5066896;28;20553;-75
2023/11/18 07:52:03;;;;;;;18.40;9.60;;;6.20;99.90;;;;;;5065167;28;20526;-75
2023/11/18 07:54:28;;;;;;;13.03;7.50;;;6.20;99.90;;;;;;5045623;28;20235;-75
2023/11/18 07:56:54;;;;;;;11.97;8.23;;;6.20;99.90;;;;;;5045416;28;20481;-75
2023/11/18 07:59:21;;;;;;;11.10;7.20;;;6.20;99.90;;;;;;5036252;28;20259;-75
2023/11/18 08:01:48;;;;;;;14.77;8.90;;;6.20;99.90;;;;;;5068758;28;20220;-76
2023/11/18 08:04:14;;;;;;;14.70;8.00;;;6.20;99.90;;;;;;5046759;28;20500;-75
2023/11/18 08:06:40;;;;;;;13.10;8.03;;;6.20;99.90;;;;;;5052174;28;20461;-75
2023/11/18 08:09:13;;;;;;;13.87;8.00;;;6.20;99.90;;;;;;5043604;28;20224;-76
2023/11/18 08:11:41;;;;;;;15.30;7.80;;;6.20;99.90;;;;;;5053147;28;20462;-75
2023/11/18 08:14:09;;;;;;;10.60;7.30;;;6.20;99.90;;;;;;5051430;28;20462;-76
2023/11/18 08:16:36;;;;;;;11.20;7.60;;;6.20;99.90;;;;;;5058714;28;20453;-76
2023/11/18 08:19:07;;;;;;;12.90;7.50;;;6.30;99.90;;;;;;5051410;28;21018;-76
2023/11/18 08:21:34;;;;;;;9.60;7.57;;;6.30;99.90;;;;;;5050924;28;20455;-76
2023/11/18 08:24:01;;;;;;;12.10;7.17;;;6.30;99.90;;;;;;5032105;28;20475;-76
2023/11/18 08:26:27;;;;;;;12.10;6.10;;;6.30;99.90;;;;;;5046260;28;20947;-76
2023/11/18 08:28:53;;;;;;;16.30;7.67;;;6.30;99.90;;;;;;5016438;28;20540;-75
2023/11/18 08:31:18;;;;;;;11.20;6.67;;;6.30;99.90;;;;;;5029969;28;20746;-76
2023/11/18 08:33:46;;;;;;;14.00;8.47;;;6.30;99.90;;;;;;5053792;28;20871;-76
2023/11/18 08:36:12;;;;;;;12.07;7.97;;;6.40;99.90;;;;;;5055134;28;20216;-76
2023/11/18 08:38:38;;;;;;;11.60;6.47;;;6.40;99.90;;;;;;5048978;28;20465;-75
2023/11/18 08:41:08;;;;;;;17.50;8.07;;;6.40;99.90;;;;;;5050653;28;20454;-76
2023/11/18 08:43:35;;;;;;;14.83;8.10;;;6.40;99.90;;;;;;5078063;28;20484;-75
2023/11/18 08:46:01;;;;;;;13.20;7.30;;;6.40;99.90;;;;;;5045194;28;20474;-76
2023/11/18 08:48:28;;;;;;;13.40;7.33;;;6.40;99.90;;;;;;5041514;28;20461;-75
2023/11/18 08:50:54;;;;;;;13.67;7.10;;;6.40;99.90;;;;;;5050369;28;20494;-75
2023/11/18 08:53:25;;;;;;;11.10;7.10;;;6.40;99.90;;;;;;5039178;28;20485;-75
2023/11/18 08:55:53;;;;;;;15.13;7.73;;;6.40;99.90;;;;;;5044392;28;20216;-75
2023/11/18 08:58:21;;;;;;;12.80;7.30;;;6.40;99.90;;;;;;5034530;28;20454;-75
2023/11/18 09:03:25;;;;;;;13.07;7.23;;;6.50;99.90;;;;;;5053871;28;20461;-75
2023/11/18 09:05:58;;;;;;;12.73;7.10;;;6.50;99.90;;;;;;5034055;28;20469;-75
2023/11/18 09:08:42;;;;;;;15.23;7.57;;;6.50;99.90;;;;;;5045915;28;20439;-75
2023/11/18 09:11:16;;;;;;;10.53;6.77;;;6.50;99.90;;;;;;5074235;28;20498;-75
2023/11/18 09:13:53;;;;;;;13.73;8.20;;;6.50;99.90;;;;;;5051722;28;20454;-75
2023/11/18 09:16:25;;;;;;;15.20;8.47;;;6.50;99.90;;;;;;5049117;28;20448;-76
2023/11/18 09:18:51;;;;;;;15.07;7.17;;;6.60;99.90;;;;;;5069372;28;20458;-75
2023/11/18 09:21:19;;;;;;;12.00;7.47;;;6.60;99.90;;;;;;5075255;28;20461;-76
2023/11/18 09:23:47;;;;;;;17.13;7.90;;;6.60;99.90;;;;;;5028141;28;20498;-75
2023/11/18 09:26:14;;;;;;;12.87;7.50;;;6.60;99.90;;;;;;5073142;28;20485;-76
2023/11/18 09:28:40;;;;;;;15.23;7.73;;;6.60;99.90;;;;;;5039598;28;20475;-75
2023/11/18 09:31:11;;;;;;;11.03;6.70;;;6.60;99.90;;;;;;5075425;28;20454;-76
2023/11/18 09:33:39;;;;;;;11.87;7.67;;;6.70;99.90;;;;;;5039750;28;20450;-76
2023/11/18 09:36:07;;;;;;;14.97;8.40;;;6.70;99.90;;;;;;5059877;28;20548;-76
2023/11/18 09:38:38;;;;;;;17.27;10.40;;;6.70;99.90;;;;;;5052819;28;20454;-76
2023/11/18 09:41:10;;;;;;;18.80;11.87;;;6.70;99.90;;;;;;5065325;28;20466;-76
2023/11/18 09:43:46;;;;;;;25.33;15.07;;;6.80;99.90;;;;;;5049690;28;20450;-75
2023/11/18 09:46:21;;;;;;;29.23;15.17;;;6.70;99.90;;;;;;5040553;28;21023;-76
2023/11/18 09:49:14;;;;;;;27.57;16.63;;;6.70;99.90;;;;;;5048452;28;20492;-73
2023/11/18 09:51:41;;;;;;;35.20;20.17;;;6.80;99.90;;;;;;5038931;28;20470;-75
2023/11/18 09:54:36;;;;;;;32.37;22.83;;;6.80;99.90;;;;;;5059224;28;20445;-75
2023/11/18 09:57:31;;;;;;;26.77;20.87;;;6.80;99.90;;;;;;5062725;28;20451;-76
2023/11/18 10:00:20;;;;;;;27.57;19.67;;;6.80;99.90;;;;;;5043400;28;20482;-76
2023/11/18 10:02:50;;;;;;;20.77;16.80;;;6.90;99.90;;;;;;5065329;28;20478;-75
2023/11/18 10:05:20;;;;;;;22.07;15.43;;;6.90;99.90;;;;;;5049282;28;20464;-75
2023/11/18 10:07:49;;;;;;;16.70;12.53;;;6.90;99.90;;;;;;5034139;28;20461;-74
2023/11/18 10:10:16;;;;;;;15.73;11.23;;;6.90;99.90;;;;;;5042668;28;20541;-76
2023/11/18 10:12:44;;;;;;;17.87;10.50;;;6.90;99.90;;;;;;5032202;28;20519;-75
2023/11/18 10:15:24;;;;;;;16.37;9.60;;;7.00;99.90;;;;;;5066589;28;20458;-74
2023/11/18 10:18:06;;;;;;;16.40;11.83;;;7.00;99.90;;;;;;5047762;28;20466;-75
2023/11/18 10:20:47;;;;;;;18.00;12.03;;;7.00;99.90;;;;;;5053078;28;20538;-75
2023/11/18 10:23:19;;;;;;;13.70;8.50;;;7.00;99.90;;;;;;5052854;28;20525;-76
2023/11/18 10:25:58;;;;;;;11.17;8.17;;;7.00;99.90;;;;;;5044712;28;21041;-75
2023/11/18 10:28:28;;;;;;;12.80;7.57;;;7.10;99.90;;;;;;5069377;28;20443;-77
2023/11/18 10:30:58;;;;;;;11.50;7.90;;;7.10;99.90;;;;;;5038160;28;20496;-75
2023/11/18 10:33:33;;;;;;;10.73;6.43;;;7.10;99.90;;;;;;5038481;28;20445;-75
2023/11/18 10:36:03;;;;;;;10.00;7.40;;;7.10;99.90;;;;;;5044530;28;20461;-75
2023/11/18 10:38:39;;;;;;;12.00;6.90;;;7.10;99.90;;;;;;5055010;28;20487;-75
2023/11/18 10:41:05;;;;;;;9.10;6.53;;;7.20;99.90;;;;;;5072126;28;20818;-75
2023/11/18 10:43:35;;;;;;;18.83;7.57;;;7.20;99.90;;;;;;5073994;28;20462;-76
2023/11/18 10:46:12;;;;;;;7.73;6.10;;;7.20;99.90;;;;;;5033955;28;20450;-75
2023/11/18 10:48:43;;;;;;;11.43;7.40;;;7.20;99.90;;;;;;5071815;28;20462;-76
2023/11/18 10:51:19;;;;;;;9.87;6.67;;;7.20;99.90;;;;;;5046542;28;20454;-76
2023/11/18 10:53:53;;;;;;;11.90;7.17;;;7.20;99.90;;;;;;5053898;28;20462;-75
2023/11/18 10:56:28;;;;;;;15.23;8.30;;;7.30;99.90;;;;;;5058723;28;20981;-76
2023/11/18 10:59:07;;;;;;;11.03;6.80;;;7.20;99.90;;;;;;5066444;28;21010;-75
2023/11/18 11:01:42;;;;;;;10.27;6.73;;;7.30;99.90;;;;;;5041926;28;20457;-76
2023/11/18 11:04:10;;;;;;;9.40;6.37;;;7.30;99.90;;;;;;5062550;28;20596;-76
2023/11/18 11:06:56;;;;;;;10.07;6.53;;;7.30;99.90;;;;;;5050141;28;20820;-76
2023/11/18 11:09:28;;;;;;;9.57;6.50;;;7.30;99.90;;;;;;5055426;28;20465;-76
2023/11/18 11:12:05;;;;;;;14.00;8.13;;;7.30;99.90;;;;;;5052739;28;20457;-76
2023/11/18 11:14:41;;;;;;;14.53;7.77;;;7.30;99.90;;;;;;5042479;28;20458;-75
2023/11/18 11:17:25;;;;;;;13.90;7.23;;;7.40;99.90;;;;;;5069732;28;20464;-76
2023/11/18 11:19:56;;;;;;;8.10;6.67;;;7.40;99.90;;;;;;5065843;28;20459;-76
2023/11/18 11:22:37;;;;;;;13.70;7.77;;;7.40;99.90;;;;;;5052772;28;20504;-76
2023/11/18 11:25:21;;;;;;;14.77;8.53;;;7.40;99.90;;;;;;5073546;28;20455;-75
2023/11/18 11:28:05;;;;;;;10.83;6.77;;;7.40;99.90;;;;;;5038737;28;20454;-75
2023/11/18 11:30:49;;;;;;;8.97;6.30;;;7.40;99.90;;;;;;5037370;28;20474;-76
2023/11/18 11:33:36;;;;;;;9.00;6.17;;;7.40;99.90;;;;;;5044392;28;20616;-76
2023/11/18 11:36:05;;;;;;;10.77;5.80;;;7.40;99.90;;;;;;5061556;28;20550;-76
2023/11/18 11:38:32;;;;;;;11.30;6.63;;;7.40;99.90;;;;;;5034557;28;20454;-75
2023/11/18 11:41:01;;;;;;;12.67;7.67;;;7.40;99.90;;;;;;5064369;28;20461;-75
2023/11/18 11:43:29;;;;;;;11.27;7.90;;;7.50;99.90;;;;;;5047687;28;20558;-76
2023/11/18 11:45:57;;;;;;;14.20;9.37;;;7.50;99.90;;;;;;5043973;28;20463;-75
2023/11/18 11:48:27;;;;;;;18.10;10.40;;;7.50;99.90;;;;;;5066120;28;20457;-76
2023/11/18 11:51:20;;;;;;;13.53;9.90;;;7.50;99.90;;;;;;5053959;28;20462;-76
2023/11/18 11:54:15;;;;;;;8.03;6.13;;;7.50;99.90;;;;;;5031692;28;20507;-76
2023/11/18 11:56:49;;;;;;;8.57;5.67;;;7.60;99.90;;;;;;5044020;28;20473;-76
2023/11/18 11:59:35;;;;;;;7.90;6.10;;;7.60;99.90;;;;;;5014772;28;20460;-76
2023/11/18 12:02:07;;;;;;;10.43;6.20;;;7.60;99.90;;;;;;5048517;28;20520;-76
2023/11/18 12:04:37;;;;;;;10.27;5.90;;;7.60;99.90;;;;;;5054574;28;21049;-77
2023/11/18 12:07:08;;;;;;;13.27;7.60;;;7.60;99.90;;;;;;5025271;28;20470;-76
2023/11/18 12:09:38;;;;;;;10.27;7.00;;;7.60;99.90;;;;;;5053279;28;20995;-76
2023/11/18 12:12:09;;;;;;;13.63;8.00;;;7.70;99.90;;;;;;5043120;28;20455;-76
2023/11/18 12:14:56;;;;;;;9.60;6.60;;;7.70;99.90;;;;;;5029801;28;20531;-76
2023/11/18 12:17:22;;;;;;;10.70;8.10;;;7.70;99.90;;;;;;5037719;28;20459;-76
2023/11/18 12:19:49;;;;;;;15.70;7.40;;;7.70;99.90;;;;;;5066964;28;20469;-76
2023/11/18 12:22:33;;;;;;;10.87;7.27;;;7.70;99.90;;;;;;5019367;28;20503;-76
2023/11/18 12:24:58;;;;;;;12.53;7.13;;;7.70;99.90;;;;;;5010997;28;20459;-75
2023/11/18 12:27:54;;;;;;;17.87;8.60;;;7.70;99.90;;;;;;5021777;28;20493;-75
2023/11/18 12:30:22;;;;;;;11.37;7.70;;;7.70;99.90;;;;;;5052584;28;20593;-74
2023/11/18 12:33:05;;;;;;;17.27;9.63;;;7.70;99.90;;;;;;5038202;28;20459;-75
2023/11/18 12:35:50;;;;;;;17.33;7.80;;;7.70;99.90;;;;;;5064047;28;20462;-75
2023/11/18 12:38:40;;;;;;;11.40;7.37;;;7.80;99.90;;;;;;5028445;28;20874;-75
2023/11/18 12:41:11;;;;;;;13.07;8.00;;;7.80;99.90;;;;;;5029547;28;20546;-76
2023/11/18 12:43:48;;;;;;;15.57;9.50;;;7.80;99.90;;;;;;5041694;28;20530;-75
2023/11/18 12:46:46;;;;;;;12.50;8.40;;;7.80;99.90;;;;;;5019260;28;20458;-76
2023/11/18 12:49:16;;;;;;;11.67;7.43;;;7.80;99.90;;;;;;5038180;28;20458;-77
2023/11/18 12:51:45;;;;;;;12.40;7.90;;;7.80;99.90;;;;;;5067324;28;20876;-75
2023/11/18 12:54:12;;;;;;;11.37;8.00;;;7.80;99.90;;;;;;5046466;28;20456;-77
2023/11/18 12:56:44;;;;;;;10.83;7.07;;;7.80;99.90;;;;;;5066233;28;20529;-76
2023/11/18 12:59:12;;;;;;;10.90;7.53;;;7.80;99.90;;;;;;5066139;28;20983;-76
2023/11/18 13:01:41;;;;;;;11.70;7.40;;;7.80;99.90;;;;;;5044778;28;20462;-74
2023/11/18 13:04:08;;;;;;;9.73;6.50;;;7.80;99.90;;;;;;5039072;28;20474;-76